sensor_id;sensor_type;location;lat;lon;timestamp;temperature;humidity
15872;DHT22;8035;51.962;7.162;2023-02-23T00:00:15;8.80;99.90
15872;DHT22;8035;51.962;7.162;2023-02-23T00:02:53;8.80;99.90
15872;DHT22;8035;51.962;7.162;2023-02-23T00:05:20;8.80;99.90
15872;DHT22;8035;51.962;7.162;2023-02-23T00:07:47;8.80;99.90
15872;DHT22;8035;51.962;7.162;2023-02-23T00:10:14;8.80;99.90
15872;DHT22;8035;51.962;7.162;2023-02-23T00:12:43;8.80;99.90
15872;DHT22;8035;51.962;7.162;2023-02-23T00:15:10;8.80;99.90
15872;DHT22;8035;51.962;7.162;2023-02-23T00:17:36;8.80;99.90
15872;DHT22;8035;51.962;7.162;2023-02-23T00:20:04;8.80;99.90
15872;DHT22;8035;51.962;7.162;2023-02-23T00:22:33;8.80;99.90
15872;DHT22;8035;51.962;7.162;2023-02-23T00:24:59;8.80;99.90
15872;DHT22;8035;51.962;7.162;2023-02-23T00:27:25;8.80;99.90
15872;DHT22;8035;51.962;7.162;2023-02-23T00:29:51;8.80;99.90
15872;DHT22;8035;51.962;7.162;2023-02-23T00:32:17;8.80;99.90
15872;DHT22;8035;51.962;7.162;2023-02-23T00:34:46;8.80;99.90
15872;DHT22;8035;51.962;7.162;2023-02-23T00:37:16;8.80;99.90
15872;DHT22;8035;51.962;7.162;2023-02-23T00:39:42;8.80;99.90
15872;DHT22;8035;51.962;7.162;2023-02-23T00:42:09;8.80;99.90
15872;DHT22;8035;51.962;7.162;2023-02-23T00:44:35;8.80;99.90
15872;DHT22;8035;51.962;7.162;2023-02-23T00:49:49;8.80;99.90
15872;DHT22;8035;51.962;7.162;2023-02-23T00:52:15;8.80;99.90
15872;DHT22;8035;51.962;7.162;2023-02-23T00:54:41;8.80;99.90
15872;DHT22;8035;51.962;7.162;2023-02-23T00:57:06;8.80;99.90
15872;DHT22;8035;51.962;7.162;2023-02-23T00:59:32;8.80;99.90
15872;DHT22;8035;51.962;7.162;2023-02-23T01:01:58;8.80;99.90
15872;DHT22;8035;51.962;7.162;2023-02-23T01:04:23;8.80;99.90
15872;DHT22;8035;51.962;7.162;2023-02-23T01:06:49;8.80;99.90
15872;DHT22;8035;51.962;7.162;2023-02-23T01:09:16;8.80;99.90
15872;DHT22;8035;51.962;7.162;2023-02-23T01:11:53;8.80;99.90
15872;DHT22;8035;51.962;7.162;2023-02-23T01:14:21;8.80;99.90
15872;DHT22;8035;51.962;7.162;2023-02-23T01:16:47;8.80;99.90
15872;DHT22;8035;51.962;7.162;2023-02-23T01:19:13;8.80;99.90
15872;DHT22;8035;51.962;7.162;2023-02-23T01:21:40;8.80;99.90
15872;DHT22;8035;51.962;7.162;2023-02-23T01:24:06;8.80;99.90
15872;DHT22;8035;51.962;7.162;2023-02-23T01:26:37;8.80;99.90
15872;DHT22;8035;51.962;7.162;2023-02-23T01:29:09;8.80;99.90
15872;DHT22;8035;51.962;7.162;2023-02-23T01:31:36;8.80;99.90
15872;DHT22;8035;51.962;7.162;2023-02-23T01:34:03;8.80;99.90
15872;DHT22;8035;51.962;7.162;2023-02-23T01:36:34;8.80;99.90
15872;DHT22;8035;51.962;7.162;2023-02-23T01:39:00;8.80;99.90
15872;DHT22;8035;51.962;7.162;2023-02-23T01:41:28;8.80;99.90
15872;DHT22;8035;51.962;7.162;2023-02-23T01:46:46;8.80;99.90
15872;DHT22;8035;51.962;7.162;2023-02-23T01:49:19;8.80;99.90
15872;DHT22;8035;51.962;7.162;2023-02-23T01:51:57;8.80;99.90
15872;DHT22;8035;51.962;7.162;2023-02-23T01:54:29;8.80;99.90
15872;DHT22;8035;51.962;7.162;2023-02-23T01:57:00;8.70;99.90
15872;DHT22;8035;51.962;7.162;2023-02-23T01:59:31;8.70;99.90
15872;DHT22;8035;51.962;7.162;2023-02-23T02:02:01;8.70;99.90
15872;DHT22;8035;51.962;7.162;2023-02-23T02:04:30;8.70;99.90
15872;DHT22;8035;51.962;7.162;2023-02-23T02:07:03;8.70;99.90
15872;DHT22;8035;51.962;7.162;2023-02-23T02:09:30;8.70;99.90
15872;DHT22;8035;51.962;7.162;2023-02-23T02:12:02;8.70;99.90
15872;DHT22;8035;51.962;7.162;2023-02-23T02:14:32;8.70;99.90
15872;DHT22;8035;51.962;7.162;2023-02-23T02:17:11;8.70;99.90
15872;DHT22;8035;51.962;7.162;2023-02-23T02:25:09;8.70;99.90
15872;DHT22;8035;51.962;7.162;2023-02-23T02:30:53;8.60;99.90
15872;DHT22;8035;51.962;7.162;2023-02-23T02:33:28;8.70;99.90
15872;DHT22;8035;51.962;7.162;2023-02-23T02:41:52;8.70;99.90
15872;DHT22;8035;51.962;7.162;2023-02-23T02:47:15;8.70;99.90
15872;DHT22;8035;51.962;7.162;2023-02-23T02:49:44;8.70;99.90
15872;DHT22;8035;51.962;7.162;2023-02-23T02:52:23;8.70;99.90
15872;DHT22;8035;51.962;7.162;2023-02-23T02:54:52;8.70;99.90
15872;DHT22;8035;51.962;7.162;2023-02-23T02:57:23;8.70;99.90
15872;DHT22;8035;51.962;7.162;2023-02-23T02:59:50;8.70;99.90
15872;DHT22;8035;51.962;7.162;2023-02-23T03:02:36;8.60;99.90
15872;DHT22;8035;51.962;7.162;2023-02-23T03:05:26;8.60;99.90
15872;DHT22;8035;51.962;7.162;2023-02-23T03:08:36;8.50;99.90
15872;DHT22;8035;51.962;7.162;2023-02-23T03:11:26;8.50;99.90
15872;DHT22;8035;51.962;7.162;2023-02-23T03:14:52;8.50;99.90
15872;DHT22;8035;51.962;7.162;2023-02-23T03:17:45;8.50;99.90
15872;DHT22;8035;51.962;7.162;2023-02-23T03:32:06;8.50;99.90
15872;DHT22;8035;51.962;7.162;2023-02-23T03:40:46;8.50;99.90
15872;DHT22;8035;51.962;7.162;2023-02-23T03:43:34;8.50;99.90
15872;DHT22;8035;51.962;7.162;2023-02-23T03:46:24;8.50;99.90
15872;DHT22;8035;51.962;7.162;2023-02-23T03:49:11;8.50;99.90
15872;DHT22;8035;51.962;7.162;2023-02-23T03:52:02;8.50;99.90
15872;DHT22;8035;51.962;7.162;2023-02-23T03:54:53;8.50;99.90
15872;DHT22;8035;51.962;7.162;2023-02-23T03:57:40;8.50;99.90
15872;DHT22;8035;51.962;7.162;2023-02-23T04:00:36;8.50;99.90
15872;DHT22;8035;51.962;7.162;2023-02-23T04:03:22;8.50;99.90
15872;DHT22;8035;51.962;7.162;2023-02-23T04:06:11;8.50;99.90
15872;DHT22;8035;51.962;7.162;2023-02-23T04:09:00;8.50;99.90
15872;DHT22;8035;51.962;7.162;2023-02-23T04:12:10;8.40;99.90
15872;DHT22;8035;51.962;7.162;2023-02-23T04:17:25;8.40;99.90
15872;DHT22;8035;51.962;7.162;2023-02-23T04:19:53;8.40;99.90
15872;DHT22;8035;51.962;7.162;2023-02-23T04:22:20;8.30;99.90
15872;DHT22;8035;51.962;7.162;2023-02-23T04:24:46;8.30;99.90
15872;DHT22;8035;51.962;7.162;2023-02-23T04:27:12;8.30;99.90
15872;DHT22;8035;51.962;7.162;2023-02-23T04:29:38;8.30;99.90
15872;DHT22;8035;51.962;7.162;2023-02-23T04:32:04;8.30;99.90
15872;DHT22;8035;51.962;7.162;2023-02-23T04:34:30;8.30;99.90
15872;DHT22;8035;51.962;7.162;2023-02-23T04:36:55;8.30;99.90
15872;DHT22;8035;51.962;7.162;2023-02-23T04:39:21;8.30;99.90
15872;DHT22;8035;51.962;7.162;2023-02-23T04:41:46;8.30;99.90
15872;DHT22;8035;51.962;7.162;2023-02-23T04:44:15;8.40;99.90
15872;DHT22;8035;51.962;7.162;2023-02-23T04:46:40;8.40;99.90
15872;DHT22;8035;51.962;7.162;2023-02-23T04:49:06;8.40;99.90
15872;DHT22;8035;51.962;7.162;2023-02-23T04:51:32;8.40;99.90
15872;DHT22;8035;51.962;7.162;2023-02-23T04:53:58;8.40;99.90
15872;DHT22;8035;51.962;7.162;2023-02-23T04:56:24;8.40;99.90
15872;DHT22;8035;51.962;7.162;2023-02-23T04:58:50;8.40;99.90
15872;DHT22;8035;51.962;7.162;2023-02-23T05:01:16;8.40;99.90
15872;DHT22;8035;51.962;7.162;2023-02-23T05:03:42;8.40;99.90
15872;DHT22;8035;51.962;7.162;2023-02-23T05:06:08;8.40;99.90
15872;DHT22;8035;51.962;7.162;2023-02-23T05:08:33;8.40;99.90
15872;DHT22;8035;51.962;7.162;2023-02-23T05:10:59;8.40;99.90
15872;DHT22;8035;51.962;7.162;2023-02-23T05:13:24;8.30;99.90
15872;DHT22;8035;51.962;7.162;2023-02-23T05:15:55;8.30;99.90
15872;DHT22;8035;51.962;7.162;2023-02-23T05:18:20;8.30;99.90
15872;DHT22;8035;51.962;7.162;2023-02-23T05:20:46;8.30;99.90
15872;DHT22;8035;51.962;7.162;2023-02-23T05:23:12;8.30;99.90
15872;DHT22;8035;51.962;7.162;2023-02-23T05:25:38;8.30;99.90
15872;DHT22;8035;51.962;7.162;2023-02-23T05:28:04;8.20;99.90
15872;DHT22;8035;51.962;7.162;2023-02-23T05:30:31;8.20;99.90
15872;DHT22;8035;51.962;7.162;2023-02-23T05:32:57;8.20;99.90
15872;DHT22;8035;51.962;7.162;2023-02-23T05:35:23;8.20;99.90
15872;DHT22;8035;51.962;7.162;2023-02-23T05:37:48;8.20;99.90
15872;DHT22;8035;51.962;7.162;2023-02-23T05:40:14;8.10;99.90
15872;DHT22;8035;51.962;7.162;2023-02-23T05:42:40;8.10;99.90
15872;DHT22;8035;51.962;7.162;2023-02-23T05:45:06;8.00;99.90
15872;DHT22;8035;51.962;7.162;2023-02-23T05:47:32;8.00;99.90
15872;DHT22;8035;51.962;7.162;2023-02-23T05:50:04;8.00;99.90
15872;DHT22;8035;51.962;7.162;2023-02-23T05:52:30;8.00;99.90
15872;DHT22;8035;51.962;7.162;2023-02-23T05:54:56;7.90;99.90
15872;DHT22;8035;51.962;7.162;2023-02-23T05:57:22;7.90;99.90
15872;DHT22;8035;51.962;7.162;2023-02-23T05:59:48;7.90;99.90
15872;DHT22;8035;51.962;7.162;2023-02-23T06:02:13;7.90;99.90
15872;DHT22;8035;51.962;7.162;2023-02-23T06:04:39;7.90;99.90
15872;DHT22;8035;51.962;7.162;2023-02-23T06:07:25;7.90;99.90
15872;DHT22;8035;51.962;7.162;2023-02-23T06:09:50;7.90;99.90
15872;DHT22;8035;51.962;7.162;2023-02-23T06:12:16;7.90;99.90
15872;DHT22;8035;51.962;7.162;2023-02-23T06:14:42;7.90;99.90
15872;DHT22;8035;51.962;7.162;2023-02-23T06:17:07;7.90;99.90
15872;DHT22;8035;51.962;7.162;2023-02-23T06:19:33;7.90;99.90
15872;DHT22;8035;51.962;7.162;2023-02-23T06:21:59;7.90;99.90
15872;DHT22;8035;51.962;7.162;2023-02-23T06:24:24;7.90;99.90
15872;DHT22;8035;51.962;7.162;2023-02-23T06:26:50;7.90;99.90
15872;DHT22;8035;51.962;7.162;2023-02-23T06:29:16;7.90;99.90
15872;DHT22;8035;51.962;7.162;2023-02-23T06:31:42;7.90;99.90
15872;DHT22;8035;51.962;7.162;2023-02-23T06:34:08;7.80;99.90
15872;DHT22;8035;51.962;7.162;2023-02-23T06:36:34;7.80;99.90
15872;DHT22;8035;51.962;7.162;2023-02-23T06:39:00;7.80;99.90
15872;DHT22;8035;51.962;7.162;2023-02-23T06:41:26;7.80;99.90
15872;DHT22;8035;51.962;7.162;2023-02-23T06:43:52;7.80;99.90
15872;DHT22;8035;51.962;7.162;2023-02-23T06:46:18;7.80;99.90
15872;DHT22;8035;51.962;7.162;2023-02-23T06:48:44;7.80;99.90
15872;DHT22;8035;51.962;7.162;2023-02-23T06:51:09;7.80;99.90
15872;DHT22;8035;51.962;7.162;2023-02-23T06:53:35;7.80;99.90
15872;DHT22;8035;51.962;7.162;2023-02-23T06:56:02;7.80;99.90
15872;DHT22;8035;51.962;7.162;2023-02-23T06:58:28;7.80;99.90
15872;DHT22;8035;51.962;7.162;2023-02-23T07:00:57;7.80;99.90
15872;DHT22;8035;51.962;7.162;2023-02-23T07:03:24;7.80;99.90
15872;DHT22;8035;51.962;7.162;2023-02-23T07:05:51;7.80;99.90
15872;DHT22;8035;51.962;7.162;2023-02-23T07:08:17;7.80;99.90
15872;DHT22;8035;51.962;7.162;2023-02-23T07:10:44;7.90;99.90
15872;DHT22;8035;51.962;7.162;2023-02-23T07:13:10;7.90;99.90
15872;DHT22;8035;51.962;7.162;2023-02-23T07:15:38;7.90;99.90
15872;DHT22;8035;51.962;7.162;2023-02-23T07:18:04;8.00;99.90
15872;DHT22;8035;51.962;7.162;2023-02-23T07:20:30;8.00;99.90
15872;DHT22;8035;51.962;7.162;2023-02-23T07:22:56;8.00;99.90
15872;DHT22;8035;51.962;7.162;2023-02-23T07:25:22;8.00;99.90
15872;DHT22;8035;51.962;7.162;2023-02-23T07:27:48;8.00;99.90
15872;DHT22;8035;51.962;7.162;2023-02-23T07:30:14;8.00;99.90
15872;DHT22;8035;51.962;7.162;2023-02-23T07:32:40;8.00;99.90
15872;DHT22;8035;51.962;7.162;2023-02-23T07:35:06;8.00;99.90
15872;DHT22;8035;51.962;7.162;2023-02-23T07:37:32;8.00;99.90
15872;DHT22;8035;51.962;7.162;2023-02-23T07:39:57;8.00;99.90
15872;DHT22;8035;51.962;7.162;2023-02-23T07:42:23;8.00;99.90
15872;DHT22;8035;51.962;7.162;2023-02-23T07:44:49;8.00;99.90
15872;DHT22;8035;51.962;7.162;2023-02-23T07:47:14;8.00;99.90
15872;DHT22;8035;51.962;7.162;2023-02-23T07:49:40;8.00;99.90
15872;DHT22;8035;51.962;7.162;2023-02-23T07:52:05;8.00;99.90
15872;DHT22;8035;51.962;7.162;2023-02-23T07:54:31;8.00;99.90
15872;DHT22;8035;51.962;7.162;2023-02-23T07:56:57;8.10;99.90
15872;DHT22;8035;51.962;7.162;2023-02-23T07:59:23;8.10;99.90
15872;DHT22;8035;51.962;7.162;2023-02-23T08:01:49;8.10;99.90
15872;DHT22;8035;51.962;7.162;2023-02-23T08:04:17;8.10;99.90
15872;DHT22;8035;51.962;7.162;2023-02-23T08:06:42;8.10;99.90
15872;DHT22;8035;51.962;7.162;2023-02-23T08:09:09;8.10;99.90
15872;DHT22;8035;51.962;7.162;2023-02-23T08:11:35;8.10;99.90
15872;DHT22;8035;51.962;7.162;2023-02-23T08:14:00;8.10;99.90
15872;DHT22;8035;51.962;7.162;2023-02-23T08:16:28;8.10;99.90
15872;DHT22;8035;51.962;7.162;2023-02-23T08:18:56;8.10;99.90
15872;DHT22;8035;51.962;7.162;2023-02-23T08:21:23;8.00;99.90
15872;DHT22;8035;51.962;7.162;2023-02-23T08:23:49;8.00;99.90
15872;DHT22;8035;51.962;7.162;2023-02-23T08:26:15;7.90;99.90
15872;DHT22;8035;51.962;7.162;2023-02-23T08:28:40;7.90;99.90
15872;DHT22;8035;51.962;7.162;2023-02-23T08:31:10;7.90;99.90
15872;DHT22;8035;51.962;7.162;2023-02-23T08:33:36;7.80;99.90
15872;DHT22;8035;51.962;7.162;2023-02-23T08:36:04;7.80;99.90
15872;DHT22;8035;51.962;7.162;2023-02-23T08:38:49;7.80;99.90
15872;DHT22;8035;51.962;7.162;2023-02-23T08:41:15;7.80;99.90
15872;DHT22;8035;51.962;7.162;2023-02-23T08:43:41;7.70;99.90
15872;DHT22;8035;51.962;7.162;2023-02-23T08:46:07;7.70;99.90
15872;DHT22;8035;51.962;7.162;2023-02-23T08:48:33;7.70;99.90
15872;DHT22;8035;51.962;7.162;2023-02-23T08:51:00;7.70;99.90
15872;DHT22;8035;51.962;7.162;2023-02-23T08:53:26;7.70;99.90
15872;DHT22;8035;51.962;7.162;2023-02-23T08:56:02;7.80;99.90
15872;DHT22;8035;51.962;7.162;2023-02-23T08:58:29;7.80;99.90
15872;DHT22;8035;51.962;7.162;2023-02-23T09:00:55;7.80;99.90
15872;DHT22;8035;51.962;7.162;2023-02-23T09:03:22;7.70;99.90
15872;DHT22;8035;51.962;7.162;2023-02-23T09:05:48;7.70;99.90
15872;DHT22;8035;51.962;7.162;2023-02-23T09:08:14;7.60;99.90
15872;DHT22;8035;51.962;7.162;2023-02-23T09:10:41;7.70;99.90
15872;DHT22;8035;51.962;7.162;2023-02-23T09:13:09;7.70;99.90
15872;DHT22;8035;51.962;7.162;2023-02-23T09:15:36;7.70;99.90
15872;DHT22;8035;51.962;7.162;2023-02-23T09:18:02;7.70;99.90
15872;DHT22;8035;51.962;7.162;2023-02-23T09:20:28;7.70;99.90
15872;DHT22;8035;51.962;7.162;2023-02-23T09:22:54;7.70;99.90
15872;DHT22;8035;51.962;7.162;2023-02-23T09:25:21;7.70;99.90
15872;DHT22;8035;51.962;7.162;2023-02-23T09:27:48;7.80;99.90
15872;DHT22;8035;51.962;7.162;2023-02-23T09:30:15;7.80;99.90
15872;DHT22;8035;51.962;7.162;2023-02-23T09:32:50;7.70;99.90
15872;DHT22;8035;51.962;7.162;2023-02-23T09:35:17;7.70;99.90
15872;DHT22;8035;51.962;7.162;2023-02-23T09:37:45;7.70;99.90
15872;DHT22;8035;51.962;7.162;2023-02-23T09:40:50;7.70;99.90
15872;DHT22;8035;51.962;7.162;2023-02-23T09:46:27;7.70;99.90
15872;DHT22;8035;51.962;7.162;2023-02-23T09:48:56;7.70;99.90
15872;DHT22;8035;51.962;7.162;2023-02-23T09:51:22;7.80;99.90
15872;DHT22;8035;51.962;7.162;2023-02-23T09:56:31;7.80;99.90
15872;DHT22;8035;51.962;7.162;2023-02-23T09:59:00;7.80;99.90
15872;DHT22;8035;51.962;7.162;2023-02-23T10:12:25;7.80;99.90
15872;DHT22;8035;51.962;7.162;2023-02-23T10:20:58;7.90;99.90
15872;DHT22;8035;51.962;7.162;2023-02-23T10:23:32;7.90;99.90
15872;DHT22;8035;51.962;7.162;2023-02-23T10:26:01;7.90;99.90
15872;DHT22;8035;51.962;7.162;2023-02-23T10:28:33;7.90;99.90
15872;DHT22;8035;51.962;7.162;2023-02-23T10:30:59;7.90;99.90
15872;DHT22;8035;51.962;7.162;2023-02-23T10:33:43;7.90;99.90
15872;DHT22;8035;51.962;7.162;2023-02-23T10:36:38;7.90;99.90
15872;DHT22;8035;51.962;7.162;2023-02-23T10:39:06;7.90;99.90
15872;DHT22;8035;51.962;7.162;2023-02-23T10:41:34;8.00;99.90
15872;DHT22;8035;51.962;7.162;2023-02-23T10:44:01;8.10;99.90
15872;DHT22;8035;51.962;7.162;2023-02-23T10:46:35;8.10;99.90
15872;DHT22;8035;51.962;7.162;2023-02-23T10:49:02;8.10;99.90
15872;DHT22;8035;51.962;7.162;2023-02-23T10:51:32;8.20;99.90
15872;DHT22;8035;51.962;7.162;2023-02-23T10:54:33;8.40;99.90
15872;DHT22;8035;51.962;7.162;2023-02-23T10:56:59;8.50;99.90
15872;DHT22;8035;51.962;7.162;2023-02-23T10:59:26;8.60;99.90
15872;DHT22;8035;51.962;7.162;2023-02-23T11:01:52;8.70;99.90
15872;DHT22;8035;51.962;7.162;2023-02-23T11:04:31;8.70;99.90
15872;DHT22;8035;51.962;7.162;2023-02-23T11:07:15;8.60;99.90
15872;DHT22;8035;51.962;7.162;2023-02-23T11:09:41;8.60;99.90
15872;DHT22;8035;51.962;7.162;2023-02-23T11:12:17;8.60;99.90
15872;DHT22;8035;51.962;7.162;2023-02-23T11:14:52;8.60;99.90
15872;DHT22;8035;51.962;7.162;2023-02-23T11:17:35;8.60;99.90
15872;DHT22;8035;51.962;7.162;2023-02-23T11:20:17;8.70;99.90
15872;DHT22;8035;51.962;7.162;2023-02-23T11:22:46;8.70;99.90
15872;DHT22;8035;51.962;7.162;2023-02-23T11:25:26;8.60;99.90
15872;DHT22;8035;51.962;7.162;2023-02-23T11:27:52;8.50;99.90
15872;DHT22;8035;51.962;7.162;2023-02-23T11:30:23;8.40;99.90
15872;DHT22;8035;51.962;7.162;2023-02-23T11:32:55;8.30;99.90
15872;DHT22;8035;51.962;7.162;2023-02-23T11:37:48;8.30;99.90
15872;DHT22;8035;51.962;7.162;2023-02-23T11:45:36;8.40;99.90
15872;DHT22;8035;51.962;7.162;2023-02-23T11:48:03;8.40;99.90
15872;DHT22;8035;51.962;7.162;2023-02-23T11:50:32;8.40;99.90
15872;DHT22;8035;51.962;7.162;2023-02-23T11:53:05;8.40;99.90
15872;DHT22;8035;51.962;7.162;2023-02-23T11:55:33;8.40;99.90
15872;DHT22;8035;51.962;7.162;2023-02-23T12:00:40;8.40;99.90
15872;DHT22;8035;51.962;7.162;2023-02-23T12:03:06;8.40;99.90
15872;DHT22;8035;51.962;7.162;2023-02-23T12:05:32;8.30;99.90
15872;DHT22;8035;51.962;7.162;2023-02-23T12:26:54;8.20;99.90
15872;DHT22;8035;51.962;7.162;2023-02-23T12:29:49;8.20;99.90
15872;DHT22;8035;51.962;7.162;2023-02-23T12:32:26;8.20;99.90
15872;DHT22;8035;51.962;7.162;2023-02-23T12:34:57;8.30;99.90
15872;DHT22;8035;51.962;7.162;2023-02-23T12:37:36;8.20;99.90
15872;DHT22;8035;51.962;7.162;2023-02-23T12:40:16;8.20;99.90
15872;DHT22;8035;51.962;7.162;2023-02-23T12:46:09;8.20;99.90
15872;DHT22;8035;51.962;7.162;2023-02-23T12:48:45;8.10;99.90
15872;DHT22;8035;51.962;7.162;2023-02-23T12:51:40;8.10;99.90
15872;DHT22;8035;51.962;7.162;2023-02-23T12:54:10;8.00;99.90
15872;DHT22;8035;51.962;7.162;2023-02-23T12:59:40;8.00;99.90
15872;DHT22;8035;51.962;7.162;2023-02-23T13:02:32;8.10;99.90
15872;DHT22;8035;51.962;7.162;2023-02-23T13:05:05;8.10;99.90
15872;DHT22;8035;51.962;7.162;2023-02-23T13:10:35;8.10;99.90
15872;DHT22;8035;51.962;7.162;2023-02-23T13:13:13;8.10;99.90
15872;DHT22;8035;51.962;7.162;2023-02-23T13:21:23;8.00;99.90
15872;DHT22;8035;51.962;7.162;2023-02-23T13:24:17;7.90;99.90
15872;DHT22;8035;51.962;7.162;2023-02-23T13:29:37;7.90;99.90
15872;DHT22;8035;51.962;7.162;2023-02-23T13:32:12;7.90;99.90
15872;DHT22;8035;51.962;7.162;2023-02-23T13:35:00;7.90;99.90
15872;DHT22;8035;51.962;7.162;2023-02-23T13:40:30;7.90;99.90
15872;DHT22;8035;51.962;7.162;2023-02-23T13:43:27;7.80;99.90
15872;DHT22;8035;51.962;7.162;2023-02-23T13:49:21;7.80;99.90
15872;DHT22;8035;51.962;7.162;2023-02-23T13:51:51;7.80;99.90
15872;DHT22;8035;51.962;7.162;2023-02-23T13:54:29;7.80;99.90
15872;DHT22;8035;51.962;7.162;2023-02-23T13:56:58;7.80;99.90
15872;DHT22;8035;51.962;7.162;2023-02-23T13:59:36;7.80;99.90
15872;DHT22;8035;51.962;7.162;2023-02-23T14:05:25;7.80;99.90
15872;DHT22;8035;51.962;7.162;2023-02-23T14:07:58;7.80;99.90
15872;DHT22;8035;51.962;7.162;2023-02-23T14:10:38;7.70;99.90
15872;DHT22;8035;51.962;7.162;2023-02-23T14:13:25;7.70;99.90
15872;DHT22;8035;51.962;7.162;2023-02-23T14:16:29;7.70;99.90
15872;DHT22;8035;51.962;7.162;2023-02-23T14:19:09;7.70;99.90
15872;DHT22;8035;51.962;7.162;2023-02-23T14:22:16;7.70;99.90
15872;DHT22;8035;51.962;7.162;2023-02-23T14:24:35;7.60;99.90
15872;DHT22;8035;51.962;7.162;2023-02-23T14:27:17;7.60;99.90
15872;DHT22;8035;51.962;7.162;2023-02-23T14:32:29;7.60;99.90
15872;DHT22;8035;51.962;7.162;2023-02-23T14:34:58;7.60;99.90
15872;DHT22;8035;51.962;7.162;2023-02-23T14:37:36;7.60;99.90
15872;DHT22;8035;51.962;7.162;2023-02-23T14:40:06;7.60;99.90
15872;DHT22;8035;51.962;7.162;2023-02-23T14:42:37;7.70;99.90
15872;DHT22;8035;51.962;7.162;2023-02-23T14:45:17;7.70;99.90
15872;DHT22;8035;51.962;7.162;2023-02-23T14:47:46;7.70;99.90
15872;DHT22;8035;51.962;7.162;2023-02-23T14:50:22;7.70;99.90
15872;DHT22;8035;51.962;7.162;2023-02-23T14:52:49;7.70;99.90
15872;DHT22;8035;51.962;7.162;2023-02-23T14:55:26;7.70;99.90
15872;DHT22;8035;51.962;7.162;2023-02-23T14:57:52;7.70;99.90
15872;DHT22;8035;51.962;7.162;2023-02-23T15:00:27;7.70;99.90
15872;DHT22;8035;51.962;7.162;2023-02-23T15:05:29;7.80;99.90
15872;DHT22;8035;51.962;7.162;2023-02-23T15:10:58;7.80;99.90
15872;DHT22;8035;51.962;7.162;2023-02-23T15:13:28;7.80;99.90
15872;DHT22;8035;51.962;7.162;2023-02-23T15:16:00;7.80;99.90
15872;DHT22;8035;51.962;7.162;2023-02-23T15:18:35;7.80;99.90
15872;DHT22;8035;51.962;7.162;2023-02-23T15:21:31;7.70;99.90
15872;DHT22;8035;51.962;7.162;2023-02-23T15:24:09;7.70;99.90
15872;DHT22;8035;51.962;7.162;2023-02-23T15:26:37;7.70;99.90
15872;DHT22;8035;51.962;7.162;2023-02-23T15:31:38;7.70;99.90
15872;DHT22;8035;51.962;7.162;2023-02-23T15:34:14;7.70;99.90
15872;DHT22;8035;51.962;7.162;2023-02-23T15:36:40;7.60;99.90
15872;DHT22;8035;51.962;7.162;2023-02-23T15:39:10;7.60;99.90
15872;DHT22;8035;51.962;7.162;2023-02-23T15:41:38;7.60;99.90
15872;DHT22;8035;51.962;7.162;2023-02-23T15:44:25;7.60;99.90
15872;DHT22;8035;51.962;7.162;2023-02-23T15:46:57;7.60;99.90
15872;DHT22;8035;51.962;7.162;2023-02-23T15:49:33;7.60;99.90
15872;DHT22;8035;51.962;7.162;2023-02-23T15:52:09;7.60;99.90
15872;DHT22;8035;51.962;7.162;2023-02-23T15:55:00;7.60;99.90
15872;DHT22;8035;51.962;7.162;2023-02-23T15:57:33;7.60;99.90
15872;DHT22;8035;51.962;7.162;2023-02-23T16:00:15;7.60;99.90
15872;DHT22;8035;51.962;7.162;2023-02-23T16:02:44;7.70;99.90
15872;DHT22;8035;51.962;7.162;2023-02-23T16:08:23;7.70;99.90
15872;DHT22;8035;51.962;7.162;2023-02-23T16:10:52;7.70;99.90
15872;DHT22;8035;51.962;7.162;2023-02-23T16:13:21;7.70;99.90
15872;DHT22;8035;51.962;7.162;2023-02-23T16:15:48;7.70;99.90
15872;DHT22;8035;51.962;7.162;2023-02-23T16:18:15;7.80;99.90
15872;DHT22;8035;51.962;7.162;2023-02-23T16:20:48;7.80;99.90
15872;DHT22;8035;51.962;7.162;2023-02-23T16:23:48;7.80;99.90
15872;DHT22;8035;51.962;7.162;2023-02-23T16:26:27;7.80;99.90
15872;DHT22;8035;51.962;7.162;2023-02-23T16:28:59;7.80;99.90
15872;DHT22;8035;51.962;7.162;2023-02-23T16:31:43;7.80;99.90
15872;DHT22;8035;51.962;7.162;2023-02-23T16:34:44;7.80;99.90
15872;DHT22;8035;51.962;7.162;2023-02-23T16:37:31;7.70;99.90
15872;DHT22;8035;51.962;7.162;2023-02-23T16:39:56;7.70;99.90
15872;DHT22;8035;51.962;7.162;2023-02-23T16:44:52;7.70;99.90
15872;DHT22;8035;51.962;7.162;2023-02-23T16:49:47;7.70;99.90
15872;DHT22;8035;51.962;7.162;2023-02-23T16:52:16;7.70;99.90
15872;DHT22;8035;51.962;7.162;2023-02-23T16:54:42;7.60;99.90
15872;DHT22;8035;51.962;7.162;2023-02-23T16:57:20;7.60;99.90
15872;DHT22;8035;51.962;7.162;2023-02-23T16:59:49;7.60;99.90
15872;DHT22;8035;51.962;7.162;2023-02-23T17:02:16;7.60;99.90
15872;DHT22;8035;51.962;7.162;2023-02-23T17:04:44;7.60;99.90
15872;DHT22;8035;51.962;7.162;2023-02-23T17:07:14;7.50;99.90
15872;DHT22;8035;51.962;7.162;2023-02-23T17:09:41;7.50;99.90
15872;DHT22;8035;51.962;7.162;2023-02-23T17:12:12;7.50;99.90
15872;DHT22;8035;51.962;7.162;2023-02-23T17:14:39;7.50;99.90
15872;DHT22;8035;51.962;7.162;2023-02-23T17:17:12;7.50;99.90
15872;DHT22;8035;51.962;7.162;2023-02-23T17:19:39;7.60;99.90
15872;DHT22;8035;51.962;7.162;2023-02-23T17:22:04;7.60;99.90
15872;DHT22;8035;51.962;7.162;2023-02-23T17:24:30;7.60;99.90
15872;DHT22;8035;51.962;7.162;2023-02-23T17:26:56;7.60;99.90
15872;DHT22;8035;51.962;7.162;2023-02-23T17:29:21;7.60;99.90
15872;DHT22;8035;51.962;7.162;2023-02-23T17:31:48;7.60;99.90
15872;DHT22;8035;51.962;7.162;2023-02-23T17:34:13;7.60;99.90
15872;DHT22;8035;51.962;7.162;2023-02-23T17:36:39;7.60;99.90
15872;DHT22;8035;51.962;7.162;2023-02-23T17:39:05;7.60;99.90
15872;DHT22;8035;51.962;7.162;2023-02-23T17:41:34;7.60;99.90
15872;DHT22;8035;51.962;7.162;2023-02-23T17:43:59;7.60;99.90
15872;DHT22;8035;51.962;7.162;2023-02-23T17:46:27;7.60;99.90
15872;DHT22;8035;51.962;7.162;2023-02-23T17:48:52;7.60;99.90
15872;DHT22;8035;51.962;7.162;2023-02-23T17:51:18;7.60;99.90
15872;DHT22;8035;51.962;7.162;2023-02-23T17:53:46;7.60;99.90
15872;DHT22;8035;51.962;7.162;2023-02-23T17:56:12;7.60;99.90
15872;DHT22;8035;51.962;7.162;2023-02-23T17:58:38;7.60;99.90
15872;DHT22;8035;51.962;7.162;2023-02-23T18:01:05;7.60;99.90
15872;DHT22;8035;51.962;7.162;2023-02-23T18:03:32;7.60;99.90
15872;DHT22;8035;51.962;7.162;2023-02-23T18:06:07;7.60;99.90
15872;DHT22;8035;51.962;7.162;2023-02-23T18:11:18;7.60;99.90
15872;DHT22;8035;51.962;7.162;2023-02-23T18:13:44;7.50;99.90
15872;DHT22;8035;51.962;7.162;2023-02-23T18:16:10;7.50;99.90
15872;DHT22;8035;51.962;7.162;2023-02-23T18:18:38;7.50;99.90
15872;DHT22;8035;51.962;7.162;2023-02-23T18:21:13;7.50;99.90
15872;DHT22;8035;51.962;7.162;2023-02-23T18:23:39;7.50;99.90
15872;DHT22;8035;51.962;7.162;2023-02-23T18:26:07;7.50;99.90
15872;DHT22;8035;51.962;7.162;2023-02-23T18:28:34;7.50;99.90
15872;DHT22;8035;51.962;7.162;2023-02-23T18:31:00;7.50;99.90
15872;DHT22;8035;51.962;7.162;2023-02-23T18:33:45;7.50;99.90
15872;DHT22;8035;51.962;7.162;2023-02-23T18:36:31;7.50;99.90
15872;DHT22;8035;51.962;7.162;2023-02-23T18:39:01;7.50;99.90
15872;DHT22;8035;51.962;7.162;2023-02-23T18:41:27;7.40;99.90
15872;DHT22;8035;51.962;7.162;2023-02-23T18:43:56;7.30;99.90
15872;DHT22;8035;51.962;7.162;2023-02-23T18:46:22;7.20;99.90
15872;DHT22;8035;51.962;7.162;2023-02-23T18:48:49;7.00;99.90
15872;DHT22;8035;51.962;7.162;2023-02-23T18:51:15;6.90;99.90